Language: 


Des rapports , des résumés tant et plus, au choix de chacun....


Données statistiques de la station
Quotidien Rapport Février 28, 2017 Unités:  Métrique    Anglais   les deux
« Précédent Jour
Suivant Jour »
Quotidien Hebdomadaire Mensuel Annuel Actuel
  Haut: Bas: Moyen:
Température: 8.3 °C 2.7 °C 5.1 °C
Pt de rosée: 6.5 °C 0.1 °C 3 °C
Humidité: 98 % 59 % 87 %
Vitesse du vent: 43.1 km/h 0.0 km/h 17.3 km/h
Rafales: 49.7 km/h - -
Vent:- - WSW
Pression: 995.1 hPa 986.0 hPa -
Précipitation: 8.4 mm    
Historical Graphs
 
 
Données statistiques pour Février 28, 2017
Heure Température Point de rosée Pression Vent Vitesse du vent Refales Humidité Pluie (taux horaire)
00:04 4.3 °C 3.7 °C 989.1 hPa SW 24.5 km/h 24.5 km/h 96 % 0.3 mm
00:09 4.4 °C 3.7 °C 988.0 hPa SW 24.5 km/h 24.5 km/h 95 % 0.3 mm
00:14 4.5 °C 3.6 °C 988.0 hPa WSW 19.1 km/h 24.5 km/h 94 % 0.3 mm
00:19 4.6 °C 3.3 °C 988.0 hPa SSW 30.2 km/h 30.2 km/h 91 % 0.3 mm
00:24 4.7 °C 2.9 °C 988.0 hPa SSW 30.2 km/h 30.2 km/h 88 % 0.3 mm
00:29 4.7 °C 2.9 °C 988.0 hPa SW 19.1 km/h 30.2 km/h 88 % 0.3 mm
00:34 4.7 °C 2.7 °C 988.0 hPa WSW 18.3 km/h 30.2 km/h 87 % 0.3 mm
00:39 4.8 °C 2.8 °C 988.0 hPa SW 16.6 km/h 19.5 km/h 87 % 0.3 mm
00:44 4.9 °C 2.8 °C 988.0 hPa SSW 16.6 km/h 20.6 km/h 86 % 0.3 mm
00:49 5.0 °C 2.7 °C 988.0 hPa SW 21.6 km/h 21.6 km/h 85 % 0.3 mm
00:54 5.1 °C 2.6 °C 988.0 hPa SW 17.2 km/h 21.6 km/h 84 % 0.3 mm
00:59 5.1 °C 2.6 °C 988.0 hPa SW 17.2 km/h 21.6 km/h 84 % 0.0 mm
01:04 5.2 °C 2.7 °C 988.0 hPa SW 17.2 km/h 17.2 km/h 84 % 0.0 mm
01:09 5.2 °C 2.6 °C 988.0 hPa SSW 20.6 km/h 20.6 km/h 83 % 0.0 mm
01:14 5.2 °C 2.6 °C 988.0 hPa WSW 16.9 km/h 20.6 km/h 83 % 0.0 mm
01:19 5.3 °C 2.6 °C 988.0 hPa SSW 20.6 km/h 20.6 km/h 83 % 0.0 mm
01:24 5.3 °C 2.3 °C 988.0 hPa SW 30.2 km/h 30.2 km/h 81 % 0.0 mm
01:29 5.4 °C 2.4 °C 988.0 hPa WSW 27.7 km/h 30.2 km/h 81 % 0.0 mm
01:34 5.4 °C 2.1 °C 988.0 hPa SW 17.2 km/h 30.2 km/h 79 % 0.0 mm
01:39 5.4 °C 2.1 °C 988.0 hPa WSW 16.9 km/h 31.4 km/h 79 % 0.0 mm
01:44 5.3 °C 1.9 °C 988.0 hPa SSW 21.6 km/h 31.4 km/h 79 % 0.0 mm
01:49 5.3 °C 1.8 °C 988.0 hPa SSW 20.1 km/h 28.5 km/h 78 % 0.0 mm
01:54 5.3 °C 1.8 °C 988.0 hPa SW 19.8 km/h 27.7 km/h 78 % 0.0 mm
01:59 5.2 °C 1.7 °C 988.0 hPa SW 17.7 km/h 27.7 km/h 78 % 0.0 mm
02:04 5.2 °C 1.7 °C 988.0 hPa SW 20.1 km/h 20.9 km/h 78 % 0.0 mm
02:09 5.2 °C 1.5 °C 988.0 hPa SW 12.6 km/h 21.2 km/h 77 % 0.0 mm
02:14 5.1 °C 1.4 °C 988.0 hPa SSW 16.9 km/h 21.2 km/h 77 % 0.0 mm
02:19 5.1 °C 1.4 °C 988.0 hPa SSW 17.7 km/h 20.6 km/h 77 % 0.0 mm
02:24 5.1 °C 1.4 °C 988.0 hPa SSW 20.9 km/h 24.5 km/h 77 % 0.0 mm
02:29 5.1 °C 1.4 °C 988.0 hPa SW 17.7 km/h 24.5 km/h 77 % 0.0 mm
02:34 5.1 °C 1.4 °C 988.0 hPa SSW 16.6 km/h 23.3 km/h 77 % 0.0 mm
02:39 5.1 °C 1.4 °C 988.0 hPa WSW 21.2 km/h 25.6 km/h 77 % 0.0 mm
02:44 5.0 °C 1.5 °C 988.0 hPa WSW 20.6 km/h 25.6 km/h 78 % 0.0 mm
02:49 5.0 °C 1.5 °C 988.0 hPa SW 20.6 km/h 26.2 km/h 78 % 0.0 mm
02:54 5.0 °C 1.5 °C 987.0 hPa SSW 12.6 km/h 26.2 km/h 78 % 0.0 mm
02:59 5.0 °C 1.5 °C 987.0 hPa SSW 19.8 km/h 24.5 km/h 78 % 0.0 mm
03:04 5.0 °C 1.7 °C 987.0 hPa SW 15.8 km/h 20.9 km/h 79 % 0.0 mm
03:09 5.0 °C 1.7 °C 987.0 hPa WSW 19.8 km/h 22.4 km/h 79 % 0.0 mm
03:14 5.0 °C 1.5 °C 987.0 hPa SSW 20.6 km/h 27.7 km/h 78 % 0.0 mm
03:19 5.0 °C 1.5 °C 987.0 hPa SSW 21.2 km/h 27.7 km/h 78 % 0.0 mm
03:24 5.1 °C 1.6 °C 987.0 hPa SW 16.6 km/h 22.4 km/h 78 % 0.0 mm
03:29 5.0 °C 1.5 °C 987.0 hPa SW 20.9 km/h 25.9 km/h 78 % 0.0 mm
03:34 5.1 °C 1.6 °C 987.0 hPa SSW 15.8 km/h 27.0 km/h 78 % 0.0 mm
03:39 5.1 °C 1.6 °C 987.0 hPa SSW 17.7 km/h 27.0 km/h 78 % 0.0 mm
03:44 5.1 °C 1.6 °C 987.0 hPa SW 16.3 km/h 23.3 km/h 78 % 0.0 mm
03:49 5.1 °C 1.6 °C 987.0 hPa SSW 12.6 km/h 25.6 km/h 78 % 0.0 mm
03:54 5.0 °C 1.5 °C 986.0 hPa SW 17.7 km/h 25.6 km/h 78 % 0.0 mm
03:59 5.0 °C 1.7 °C 986.0 hPa WSW 27.0 km/h 27.0 km/h 79 % 0.0 mm
04:04 4.9 °C 1.7 °C 986.0 hPa WSW 17.7 km/h 30.2 km/h 80 % 0.0 mm
04:09 4.9 °C 1.9 °C 987.0 hPa SW 18.3 km/h 30.2 km/h 81 % 0.0 mm
04:14 4.9 °C 1.9 °C 987.0 hPa WSW 13.7 km/h 25.6 km/h 81 % 0.0 mm
04:19 4.9 °C 1.9 °C 987.0 hPa SSW 14.0 km/h 24.5 km/h 81 % 0.0 mm
04:24 4.8 °C 2.0 °C 987.0 hPa SW 10.1 km/h 23.8 km/h 82 % 0.0 mm
04:29 4.8 °C 2.0 °C 987.0 hPa SW 13.0 km/h 22.7 km/h 82 % 0.0 mm
04:34 4.8 °C 2.0 °C 987.0 hPa WSW 19.5 km/h 27.4 km/h 82 % 0.0 mm
04:39 4.9 °C 1.9 °C 986.0 hPa WSW 20.9 km/h 28.0 km/h 81 % 0.0 mm
04:44 4.9 °C 1.9 °C 986.0 hPa SW 17.2 km/h 28.0 km/h 81 % 0.0 mm
04:49 5.0 °C 1.8 °C 986.0 hPa SSW 17.7 km/h 25.6 km/h 80 % 0.0 mm
04:54 5.0 °C 1.7 °C 987.0 hPa WSW 19.1 km/h 25.6 km/h 79 % 0.0 mm
04:59 5.0 °C 1.7 °C 987.0 hPa SSW 23.8 km/h 24.5 km/h 79 % 0.0 mm
05:04 5.0 °C 1.5 °C 987.0 hPa WSW 21.6 km/h 24.8 km/h 78 % 0.0 mm
05:09 5.0 °C 1.5 °C 987.0 hPa West 20.1 km/h 25.6 km/h 78 % 0.0 mm
05:14 4.9 °C 1.4 °C 987.0 hPa WSW 23.8 km/h 28.0 km/h 78 % 0.0 mm
05:19 4.9 °C 1.4 °C 987.0 hPa WSW 16.3 km/h 28.0 km/h 78 % 0.0 mm
05:24 5.0 °C 1.5 °C 987.0 hPa WSW 20.9 km/h 28.0 km/h 78 % 0.0 mm
05:29 5.0 °C 1.3 °C 987.0 hPa SW 25.9 km/h 37.0 km/h 77 % 0.0 mm
05:34 5.2 °C 1.5 °C 987.0 hPa WSW 23.8 km/h 38.1 km/h 77 % 0.0 mm
05:39 5.2 °C 1.7 °C 986.0 hPa SW 28.5 km/h 38.1 km/h 78 % 0.0 mm
05:44 5.2 °C 1.5 °C 986.0 hPa SW 43.1 km/h 43.1 km/h 77 % 0.0 mm
05:49 5.2 °C 1.7 °C 986.0 hPa SSW 22.4 km/h 43.1 km/h 78 % 0.0 mm
05:54 5.2 °C 1.7 °C 987.0 hPa SSW 27.7 km/h 36.0 km/h 78 % 0.0 mm
05:59 5.0 °C 1.5 °C 987.0 hPa WSW 24.8 km/h 33.1 km/h 78 % 0.0 mm
06:04 4.9 °C 1.4 °C 987.0 hPa WSW 22.4 km/h 38.5 km/h 78 % 0.0 mm
06:09 4.8 °C 1.7 °C 987.0 hPa WSW 32.8 km/h 46.0 km/h 80 % 0.0 mm
06:14 4.7 °C 1.7 °C 987.0 hPa WSW 20.9 km/h 46.0 km/h 81 % 0.0 mm
06:19 4.5 °C 1.9 °C 987.0 hPa SW 27.4 km/h 43.1 km/h 83 % 0.0 mm
06:24 4.5 °C 2.1 °C 987.0 hPa SSW 27.4 km/h 37.8 km/h 84 % 0.0 mm
06:29 4.5 °C 2.2 °C 987.0 hPa SW 32.0 km/h 37.8 km/h 85 % 0.0 mm
06:34 4.6 °C 2.3 °C 987.0 hPa SW 36.0 km/h 37.8 km/h 85 % 0.0 mm
06:39 4.6 °C 2.3 °C 987.0 hPa WSW 37.0 km/h 37.0 km/h 85 % 0.0 mm
06:44 4.6 °C 2.3 °C 987.0 hPa WSW 31.4 km/h 38.9 km/h 85 % 0.0 mm
06:49 4.7 °C 2.6 °C 987.0 hPa WSW 35.6 km/h 39.6 km/h 86 % 0.0 mm
06:54 4.7 °C 2.6 °C 988.0 hPa WSW 23.3 km/h 43.9 km/h 86 % 0.0 mm
06:59 4.6 °C 2.4 °C 988.0 hPa SW 28.0 km/h 43.9 km/h 86 % 0.0 mm
07:04 4.4 °C 1.9 °C 988.0 hPa SW 35.2 km/h 39.6 km/h 84 % 0.0 mm
07:09 4.3 °C 1.8 °C 987.0 hPa WSW 42.2 km/h 42.2 km/h 84 % 0.0 mm
07:14 4.3 °C 1.8 °C 987.0 hPa WSW 21.2 km/h 42.2 km/h 84 % 0.0 mm
07:19 4.2 °C 1.9 °C 987.0 hPa WSW 24.5 km/h 42.2 km/h 85 % 0.0 mm
07:24 4.2 °C 1.9 °C 987.0 hPa SW 20.1 km/h 36.0 km/h 85 % 0.0 mm
07:29 4.1 °C 2.0 °C 987.0 hPa SSW 24.8 km/h 36.7 km/h 86 % 0.0 mm
07:34 4.0 °C 2.1 °C 987.0 hPa SSW 23.0 km/h 36.7 km/h 87 % 0.0 mm
07:39 4.0 °C 2.1 °C 988.0 hPa SW 19.8 km/h 36.0 km/h 87 % 0.0 mm
07:44 4.0 °C 2.1 °C 988.0 hPa WSW 36.0 km/h 36.0 km/h 87 % 0.0 mm
07:49 4.0 °C 2.1 °C 988.0 hPa SW 25.6 km/h 40.7 km/h 87 % 0.0 mm
07:54 4.0 °C 2.1 °C 989.1 hPa WSW 29.1 km/h 40.7 km/h 87 % 0.0 mm
07:59 4.0 °C 2.1 °C 989.1 hPa WSW 26.7 km/h 41.7 km/h 87 % 0.0 mm
08:04 4.0 °C 2.1 °C 989.1 hPa WSW 29.1 km/h 41.7 km/h 87 % 0.0 mm
08:09 4.0 °C 2.1 °C 990.1 hPa WSW 43.1 km/h 49.7 km/h 87 % 0.0 mm
08:14 3.8 °C 2.2 °C 990.1 hPa WSW 36.7 km/h 49.7 km/h 89 % 0.0 mm
08:16 3.7 °C 2.2 °C 990.1 hPa WSW 34.3 km/h 49.7 km/h 90 % 0.0 mm
08:21 3.3 °C 2.0 °C 990.1 hPa WSW 31.7 km/h 43.1 km/h 91 % 0.0 mm
08:26 3.2 °C 2.1 °C 988.0 hPa WSW 28.0 km/h 38.1 km/h 92 % 0.0 mm
08:31 3.1 °C 2.0 °C 988.0 hPa SSW 22.4 km/h 31.7 km/h 93 % 0.0 mm
08:36 2.9 °C 2.1 °C 988.0 hPa WSW 19.8 km/h 28.8 km/h 94 % 0.3 mm
08:41 2.9 °C 2.1 °C 988.0 hPa SW 20.9 km/h 26.2 km/h 94 % 0.3 mm
08:46 2.9 °C 2.2 °C 988.0 hPa WSW 23.0 km/h 23.0 km/h 95 % 0.3 mm
08:51 2.9 °C 2.2 °C 988.0 hPa West 19.1 km/h 23.0 km/h 95 % 0.8 mm
08:56 2.8 °C 2.3 °C 989.1 hPa WSW 15.8 km/h 23.0 km/h 96 % 0.8 mm
09:01 2.7 °C 2.2 °C 989.1 hPa WSW 12.6 km/h 19.1 km/h 96 % 1.5 mm
09:06 2.7 °C 2.3 °C 989.1 hPa WSW 14.0 km/h 18.3 km/h 97 % 1.5 mm
09:11 2.7 °C 2.3 °C 989.1 hPa SW 13.0 km/h 17.2 km/h 97 % 1.5 mm
09:16 2.7 °C 2.3 °C 989.1 hPa SW 13.0 km/h 16.6 km/h 97 % 1.5 mm
09:21 2.8 °C 2.4 °C 989.1 hPa SW 9.3 km/h 13.0 km/h 97 % 1.5 mm
09:26 2.8 °C 2.4 °C 989.1 hPa WSW 12.6 km/h 13.0 km/h 97 % 2.3 mm
09:31 2.8 °C 2.4 °C 989.1 hPa WSW 9.3 km/h 12.6 km/h 97 % 2.3 mm
09:36 2.8 °C 2.4 °C 989.1 hPa WSW 7.9 km/h 12.6 km/h 97 % 2.3 mm
09:41 2.9 °C 2.5 °C 989.1 hPa WSW 8.7 km/h 10.5 km/h 97 % 2.3 mm
09:46 2.9 °C 2.5 °C 989.1 hPa SW 6.4 km/h 10.5 km/h 97 % 2.3 mm
09:51 2.9 °C 2.5 °C 989.1 hPa WSW 9.7 km/h 9.7 km/h 97 % 1.8 mm
09:56 2.8 °C 2.6 °C 989.1 hPa WSW 9.7 km/h 9.7 km/h 98 % 1.5 mm
10:01 2.7 °C 2.4 °C 989.1 hPa WSW 9.7 km/h 9.7 km/h 98 % 1.0 mm
10:06 2.8 °C 2.6 °C 989.1 hPa WSW 9.7 km/h 9.7 km/h 98 % 1.0 mm
10:11 2.9 °C 2.7 °C 988.0 hPa WSW 9.7 km/h 9.7 km/h 98 % 1.0 mm
10:16 3.1 °C 2.8 °C 988.0 hPa WSW 9.7 km/h 9.7 km/h 98 % 1.0 mm
10:21 3.2 °C 2.9 °C 988.0 hPa Calm     98 % 0.8 mm
10:26 3.2 °C 2.9 °C 989.1 hPa Calm     98 % 0.5 mm
10:31 3.3 °C 3.1 °C 989.1 hPa Calm     98 % 0.5 mm
10:36 3.6 °C 3.2 °C 989.1 hPa Calm     98 % 0.3 mm
10:41 3.7 °C 3.4 °C 989.1 hPa Calm     98 % 0.3 mm
10:46 4.1 °C 3.8 °C 989.1 hPa Calm     98 % 0.3 mm
10:51 4.3 °C 4.0 °C 989.1 hPa South 2.1 km/h 2.1 km/h 98 % 0.3 mm
10:56 4.7 °C 4.4 °C 989.1 hPa South 2.1 km/h 2.1 km/h 98 % 0.3 mm
11:01 4.8 °C 4.5 °C 989.1 hPa Calm   2.1 km/h 98 % 0.3 mm
11:06 4.7 °C 4.4 °C 989.1 hPa Calm   2.1 km/h 98 % 0.3 mm
11:11 4.7 °C 4.4 °C 989.1 hPa Calm   2.1 km/h 98 % 0.3 mm
11:12 4.7 °C 4.4 °C 989.1 hPa Calm   2.1 km/h 98 % 0.3 mm
11:17 4.7 °C 4.4 °C 989.1 hPa Calm     98 % 0.3 mm
11:22 4.6 °C 4.2 °C 989.1 hPa Calm     97 % 0.0 mm
11:27 4.4 °C 4.0 °C 988.0 hPa Calm     97 % 0.0 mm
11:32 4.4 °C 4.0 °C 988.0 hPa Calm     97 % 0.0 mm
11:37 4.4 °C 4.0 °C 988.0 hPa Calm     97 % 0.0 mm
11:42 4.5 °C 4.1 °C 988.0 hPa Calm     97 % 0.0 mm
11:47 4.4 °C 4.0 °C 988.0 hPa Calm     97 % 0.0 mm
11:52 4.3 °C 3.9 °C 988.0 hPa West 6.1 km/h 6.1 km/h 97 % 0.0 mm
11:57 4.2 °C 3.8 °C 989.1 hPa West 6.1 km/h 6.1 km/h 97 % 0.0 mm
12:02 4.0 °C 3.6 °C 989.1 hPa West 6.1 km/h 6.1 km/h 97 % 0.0 mm
12:07 4.0 °C 3.6 °C 989.1 hPa West 6.1 km/h 6.1 km/h 97 % 0.0 mm
12:12 4.0 °C 3.6 °C 989.1 hPa West 6.1 km/h 6.1 km/h 97 % 0.0 mm
12:17 3.8 °C 3.4 °C 989.1 hPa West 6.1 km/h 6.1 km/h 97 % 0.3 mm
12:22 3.7 °C 3.3 °C 989.1 hPa West 6.1 km/h 6.1 km/h 97 % 0.3 mm
12:27 3.7 °C 3.3 °C 989.1 hPa West 6.1 km/h 6.1 km/h 97 % 0.8 mm
12:32 3.7 °C 3.3 °C 989.1 hPa West 6.1 km/h 6.1 km/h 97 % 0.8 mm
12:37 3.7 °C 3.4 °C 989.1 hPa West 6.1 km/h 6.1 km/h 98 % 0.8 mm
12:42 3.7 °C 3.4 °C 989.1 hPa West 6.1 km/h 6.1 km/h 98 % 1.0 mm
12:47 3.7 °C 3.4 °C 989.1 hPa West 6.1 km/h 6.1 km/h 98 % 1.3 mm
12:52 3.7 °C 3.4 °C 989.1 hPa West 6.1 km/h 6.1 km/h 98 % 1.3 mm
12:57 3.6 °C 3.3 °C 989.1 hPa West 6.1 km/h 6.1 km/h 98 % 1.3 mm
13:02 3.6 °C 3.2 °C 989.1 hPa West 6.1 km/h 6.1 km/h 98 % 2.3 mm
13:07 3.6 °C 3.2 °C 989.1 hPa West 6.1 km/h 6.1 km/h 98 % 2.3 mm
13:12 3.6 °C 3.3 °C 989.1 hPa West 6.1 km/h 6.1 km/h 98 % 3.0 mm
13:17 3.7 °C 3.4 °C 989.1 hPa West 6.1 km/h 6.1 km/h 98 % 2.8 mm
13:22 4.0 °C 3.7 °C 989.1 hPa West 6.1 km/h 6.1 km/h 98 % 2.8 mm
13:27 4.5 °C 4.2 °C 989.1 hPa West 6.1 km/h 6.1 km/h 98 % 2.3 mm
13:32 4.7 °C 4.4 °C 989.1 hPa West 6.1 km/h 6.1 km/h 98 % 2.3 mm
13:37 4.7 °C 4.4 °C 989.1 hPa West 6.1 km/h 6.1 km/h 98 % 2.3 mm
13:42 4.8 °C 4.5 °C 989.1 hPa West 6.1 km/h 6.1 km/h 98 % 2.0 mm
13:47 5.6 °C 5.3 °C 989.1 hPa West 6.1 km/h 6.1 km/h 98 % 2.0 mm
13:52 6.1 °C 5.8 °C 989.1 hPa West 6.1 km/h 6.1 km/h 98 % 2.0 mm
13:57 5.9 °C 5.6 °C 989.1 hPa West 6.1 km/h 6.1 km/h 98 % 2.0 mm
14:02 6.0 °C 5.7 °C 989.1 hPa West 6.1 km/h 6.1 km/h 98 % 1.0 mm
14:07 6.0 °C 5.7 °C 990.1 hPa West 6.1 km/h 6.1 km/h 98 % 0.3 mm
14:12 6.0 °C 5.6 °C 990.1 hPa West 6.1 km/h 6.1 km/h 97 % 0.3 mm
14:17 6.0 °C 5.6 °C 990.1 hPa West 6.1 km/h 6.1 km/h 97 % 0.3 mm
14:22 5.8 °C 5.3 °C 989.1 hPa West 6.1 km/h 6.1 km/h 97 % 0.3 mm
14:27 5.7 °C 5.2 °C 989.1 hPa West 6.1 km/h 6.1 km/h 97 % 0.3 mm
14:32 6.0 °C 5.4 °C 989.1 hPa West 6.1 km/h 6.1 km/h 96 % 0.3 mm
14:37 6.2 °C 5.6 °C 989.1 hPa WSW 27.7 km/h 27.7 km/h 96 % 0.3 mm
14:42 6.1 °C 5.3 °C 989.1 hPa West 21.2 km/h 27.7 km/h 95 % 0.3 mm
14:47 6.4 °C 5.6 °C 989.1 hPa WSW 17.7 km/h 27.7 km/h 95 % 0.0 mm
14:52 7.2 °C 6.4 °C 989.1 hPa WSW 17.7 km/h 23.3 km/h 95 % 0.0 mm
14:57 7.3 °C 6.5 °C 989.1 hPa WSW 20.1 km/h 24.5 km/h 95 % 0.0 mm
15:02 7.4 °C 6.4 °C 989.1 hPa West 16.9 km/h 24.5 km/h 93 % 0.0 mm
15:07 7.7 °C 6.2 °C 988.0 hPa WSW 27.4 km/h 27.4 km/h 90 % 0.0 mm
15:12 8.1 °C 6.3 °C 988.0 hPa West 23.8 km/h 27.4 km/h 89 % 0.0 mm
15:17 8.1 °C 5.8 °C 988.0 hPa West 16.6 km/h 27.4 km/h 86 % 0.0 mm
15:22 8.3 °C 6.1 °C 989.1 hPa WSW 23.3 km/h 25.6 km/h 86 % 0.0 mm
15:27 8.1 °C 5.6 °C 989.1 hPa WSW 21.2 km/h 27.7 km/h 84 % 0.0 mm
15:32 8.1 °C 5.2 °C 989.1 hPa WSW 28.0 km/h 28.0 km/h 82 % 0.0 mm
15:37 8.3 °C 5.1 °C 989.1 hPa WSW 28.0 km/h 28.5 km/h 80 % 0.0 mm
15:42 8.1 °C 4.2 °C 989.1 hPa WSW 21.2 km/h 38.9 km/h 76 % 0.0 mm
15:47 8.1 °C 3.9 °C 989.1 hPa West 32.0 km/h 38.9 km/h 75 % 0.0 mm
15:52 7.7 °C 3.4 °C 990.1 hPa WNW 23.3 km/h 35.2 km/h 74 % 0.0 mm
15:57 7.7 °C 3.5 °C 990.1 hPa WSW 17.7 km/h 30.9 km/h 75 % 0.0 mm
16:00 7.7 °C 3.5 °C 990.1 hPa WSW 23.3 km/h 30.9 km/h 75 % 0.0 mm
16:05 7.7 °C 3.2 °C 990.1 hPa WSW 18.0 km/h 30.6 km/h 73 % 0.0 mm
16:10 7.9 °C 2.6 °C 990.1 hPa West 26.7 km/h 41.7 km/h 69 % 0.0 mm
16:15 7.9 °C 1.9 °C 990.1 hPa West 28.8 km/h 41.7 km/h 66 % 0.0 mm
16:20 8.1 °C 2.3 °C 990.1 hPa West 31.4 km/h 39.6 km/h 67 % 0.0 mm
16:25 8.1 °C 1.8 °C 991.1 hPa West 25.6 km/h 36.0 km/h 65 % 0.0 mm
16:30 7.9 °C 1.8 °C 991.1 hPa WSW 30.6 km/h 35.2 km/h 65 % 0.0 mm
16:35 7.8 °C 1.4 °C 991.1 hPa West 27.7 km/h 33.1 km/h 64 % 0.0 mm
16:40 7.7 °C 0.6 °C 991.1 hPa West 36.0 km/h 36.7 km/h 61 % 0.0 mm
16:41 7.6 °C 0.1 °C 991.1 hPa West 20.9 km/h 36.7 km/h 59 % 0.0 mm
16:46 7.6 °C 0.3 °C 991.1 hPa WSW 27.4 km/h 36.7 km/h 60 % 0.0 mm
16:51 7.6 °C 0.5 °C 991.1 hPa WSW 27.7 km/h 35.6 km/h 61 % 0.0 mm
16:56 7.3 °C 0.8 °C 991.1 hPa West 17.7 km/h 35.6 km/h 63 % 0.0 mm
17:01 7.3 °C 1.3 °C 991.1 hPa WSW 28.8 km/h 31.4 km/h 66 % 0.0 mm
17:06 6.9 °C 0.6 °C 991.1 hPa West 24.8 km/h 36.0 km/h 64 % 0.0 mm
17:11 6.8 °C 0.5 °C 991.1 hPa WSW 21.2 km/h 36.0 km/h 64 % 0.0 mm
17:16 6.8 °C 0.8 °C 991.1 hPa West 16.3 km/h 32.0 km/h 66 % 0.0 mm
17:21 6.7 °C 1.2 °C 991.1 hPa WSW 21.6 km/h 31.7 km/h 68 % 0.0 mm
17:26 6.6 °C 1.1 °C 991.1 hPa West 23.3 km/h 33.5 km/h 68 % 0.0 mm
17:31 6.4 °C 0.6 °C 991.1 hPa West 21.2 km/h 33.5 km/h 66 % 0.0 mm
17:36 6.4 °C 0.9 °C 991.1 hPa West 13.7 km/h 32.0 km/h 68 % 0.0 mm
17:41 6.4 °C 1.1 °C 991.1 hPa WSW 20.9 km/h 27.4 km/h 69 % 0.0 mm
17:46 6.4 °C 1.3 °C 991.1 hPa West 15.4 km/h 27.4 km/h 70 % 0.0 mm
17:51 6.3 °C 1.4 °C 991.1 hPa WSW 16.6 km/h 24.8 km/h 71 % 0.0 mm
17:56 6.3 °C 1.8 °C 992.1 hPa West 21.2 km/h 25.3 km/h 73 % 0.0 mm
18:01 6.3 °C 1.8 °C 992.1 hPa WSW 13.7 km/h 25.3 km/h 73 % 0.0 mm
18:06 6.2 °C 1.9 °C 992.1 hPa WSW 17.2 km/h 27.0 km/h 74 % 0.0 mm
18:11 6.3 °C 1.8 °C 993.1 hPa WSW 23.8 km/h 32.8 km/h 73 % 0.0 mm
18:16 6.3 °C 1.8 °C 993.1 hPa WSW 16.6 km/h 32.8 km/h 73 % 0.0 mm
18:21 6.3 °C 1.8 °C 993.1 hPa West 21.2 km/h 28.0 km/h 73 % 0.0 mm
18:26 6.3 °C 2.0 °C 993.1 hPa West 20.6 km/h 24.8 km/h 74 % 0.0 mm
18:31 6.3 °C 1.8 °C 993.1 hPa West 22.7 km/h 33.1 km/h 73 % 0.0 mm
18:36 6.3 °C 2.0 °C 993.1 hPa WSW 17.2 km/h 33.1 km/h 74 % 0.0 mm
18:41 6.2 °C 1.5 °C 993.1 hPa West 14.3 km/h 23.8 km/h 72 % 0.0 mm
18:46 6.1 °C 1.4 °C 993.1 hPa WSW 13.7 km/h 23.8 km/h 72 % 0.0 mm
18:51 6.0 °C 1.5 °C 993.1 hPa WSW 10.5 km/h 16.9 km/h 73 % 0.0 mm
18:56 5.9 °C 1.6 °C 993.1 hPa WSW 7.6 km/h 16.9 km/h 74 % 0.0 mm
19:01 5.9 °C 1.8 °C 993.1 hPa WSW 10.1 km/h 13.0 km/h 75 % 0.0 mm
19:06 5.9 °C 1.9 °C 993.1 hPa WSW 12.6 km/h 15.4 km/h 76 % 0.0 mm
19:11 5.9 °C 2.2 °C 992.1 hPa WSW 12.2 km/h 15.4 km/h 77 % 0.0 mm
19:16 6.0 °C 2.2 °C 992.1 hPa WSW 10.8 km/h 14.0 km/h 77 % 0.0 mm
19:21 6.0 °C 2.2 °C 992.1 hPa South 7.9 km/h 14.0 km/h 77 % 0.0 mm
19:26 6.1 °C 2.5 °C 993.1 hPa SW 9.0 km/h 16.3 km/h 78 % 0.0 mm
19:31 6.2 °C 2.6 °C 993.1 hPa SW 11.1 km/h 19.5 km/h 78 % 0.0 mm
19:36 6.2 °C 2.6 °C 993.1 hPa WSW 15.8 km/h 21.2 km/h 78 % 0.0 mm
19:41 6.2 °C 2.6 °C 993.1 hPa WSW 33.5 km/h 37.0 km/h 78 % 0.0 mm
19:46 6.0 °C 2.8 °C 993.1 hPa WSW 20.9 km/h 38.9 km/h 80 % 0.0 mm
19:51 5.8 °C 2.9 °C 993.1 hPa WSW 40.4 km/h 40.4 km/h 82 % 0.0 mm
19:56 5.6 °C 2.9 °C 993.1 hPa WSW 31.4 km/h 40.4 km/h 83 % 0.0 mm
20:01 5.5 °C 3.2 °C 993.1 hPa WSW 16.3 km/h 38.1 km/h 85 % 0.0 mm
20:06 5.3 °C 3.1 °C 993.1 hPa WSW 16.6 km/h 31.4 km/h 86 % 0.0 mm
20:11 5.2 °C 3.4 °C 992.1 hPa West 16.3 km/h 25.6 km/h 88 % 0.3 mm
20:16 5.1 °C 3.4 °C 992.1 hPa WSW 21.2 km/h 25.6 km/h 89 % 0.8 mm
20:21 5.0 °C 3.7 °C 992.1 hPa WSW 16.3 km/h 21.2 km/h 91 % 0.8 mm
20:26 4.9 °C 3.9 °C 993.1 hPa WSW 24.5 km/h 27.4 km/h 93 % 0.8 mm
20:31 4.7 °C 3.8 °C 993.1 hPa West 31.4 km/h 39.6 km/h 94 % 1.8 mm
20:36 4.7 °C 3.9 °C 993.1 hPa WSW 27.7 km/h 39.6 km/h 95 % 2.0 mm
20:41 4.7 °C 3.9 °C 993.1 hPa WSW 24.5 km/h 32.3 km/h 95 % 2.0 mm
20:46 4.6 °C 4.0 °C 993.1 hPa WSW 16.3 km/h 27.7 km/h 96 % 2.0 mm
20:51 4.6 °C 4.0 °C 993.1 hPa WSW 18.0 km/h 24.5 km/h 96 % 2.0 mm
20:56 4.6 °C 4.0 °C 994.1 hPa SW 17.7 km/h 24.5 km/h 96 % 2.0 mm
21:01 4.7 °C 4.3 °C 994.1 hPa SW 16.3 km/h 23.8 km/h 97 % 2.0 mm
21:06 4.7 °C 4.3 °C 994.1 hPa SSW 18.0 km/h 25.6 km/h 97 % 1.8 mm
21:11 4.7 °C 4.3 °C 994.1 hPa WSW 16.9 km/h 25.6 km/h 97 % 1.8 mm
21:16 4.7 °C 4.3 °C 994.1 hPa WSW 15.8 km/h 21.6 km/h 97 % 1.3 mm
21:21 4.8 °C 4.4 °C 994.1 hPa SW 11.9 km/h 18.0 km/h 97 % 1.3 mm
21:26 4.8 °C 4.5 °C 994.1 hPa WSW 10.5 km/h 19.5 km/h 98 % 1.3 mm
21:31 4.9 °C 4.4 °C 994.1 hPa SSW 11.9 km/h 19.5 km/h 97 % 0.0 mm
21:36 4.9 °C 4.4 °C 994.1 hPa WSW 9.7 km/h 16.9 km/h 97 % 0.0 mm
21:41 5.0 °C 4.6 °C 994.1 hPa SW 17.2 km/h 22.7 km/h 97 % 0.0 mm
21:46 5.1 °C 4.8 °C 994.1 hPa WSW 20.1 km/h 22.7 km/h 98 % 0.0 mm
21:51 5.1 °C 4.8 °C 994.1 hPa SW 16.3 km/h 20.6 km/h 98 % 0.0 mm
21:56 5.1 °C 4.8 °C 994.1 hPa WSW 16.9 km/h 20.6 km/h 98 % 0.0 mm
22:01 5.2 °C 4.9 °C 994.1 hPa WSW 11.9 km/h 19.8 km/h 98 % 0.0 mm
22:06 5.2 °C 4.9 °C 994.1 hPa WSW 15.8 km/h 19.8 km/h 98 % 0.0 mm
22:11 5.3 °C 5.0 °C 994.1 hPa WSW 19.8 km/h 21.9 km/h 98 % 0.0 mm
22:16 5.4 °C 5.1 °C 994.1 hPa WSW 16.9 km/h 21.9 km/h 98 % 0.0 mm
22:21 5.5 °C 5.2 °C 994.1 hPa WSW 17.7 km/h 20.6 km/h 98 % 0.0 mm
22:26 5.6 °C 5.3 °C 994.1 hPa WSW 14.0 km/h 20.6 km/h 98 % 0.0 mm
22:31 5.7 °C 5.4 °C 994.1 hPa SSW 15.4 km/h 20.1 km/h 98 % 0.0 mm
22:36 5.7 °C 5.4 °C 994.1 hPa WSW 14.0 km/h 20.1 km/h 98 % 0.0 mm
22:41 5.7 °C 5.4 °C 994.1 hPa SW 12.2 km/h 19.5 km/h 98 % 0.0 mm
22:46 5.7 °C 5.4 °C 994.1 hPa SSW 14.0 km/h 16.9 km/h 98 % 0.0 mm
22:51 5.7 °C 5.4 °C 994.1 hPa SW 15.8 km/h 18.3 km/h 98 % 0.0 mm
22:56 5.8 °C 5.5 °C 994.1 hPa SW 13.7 km/h 18.3 km/h 98 % 0.0 mm
23:01 5.8 °C 5.5 °C 994.1 hPa WSW 21.2 km/h 21.2 km/h 98 % 0.0 mm
23:06 5.7 °C 5.4 °C 994.1 hPa WSW 13.7 km/h 21.2 km/h 98 % 0.0 mm
23:11 5.7 °C 5.4 °C 994.1 hPa WSW 20.1 km/h 23.8 km/h 98 % 0.0 mm
23:16 5.7 °C 5.4 °C 994.1 hPa SW 12.2 km/h 23.8 km/h 98 % 0.0 mm
23:21 5.6 °C 5.3 °C 994.1 hPa SW 20.1 km/h 20.1 km/h 98 % 0.0 mm
23:26 5.7 °C 5.4 °C 995.1 hPa SW 19.8 km/h 23.3 km/h 98 % 0.0 mm
23:31 5.6 °C 5.3 °C 995.1 hPa WSW 12.6 km/h 28.0 km/h 98 % 0.3 mm
23:36 5.7 °C 5.4 °C 995.1 hPa WSW 21.2 km/h 28.0 km/h 98 % 0.3 mm
23:41 5.7 °C 5.4 °C 994.1 hPa SSW 16.3 km/h 21.2 km/h 98 % 0.3 mm
23:46 5.7 °C 5.4 °C 994.1 hPa SW 9.0 km/h 21.2 km/h 98 % 0.3 mm
23:51 5.8 °C 5.5 °C 994.1 hPa SSW 16.6 km/h 19.1 km/h 98 % 0.3 mm
23:56 5.9 °C 5.4 °C 994.1 hPa WSW 17.2 km/h 20.9 km/h 97 % 0.3 mm
Le Gheer Warneton
Courtoisie de Weather Underground - 2.5 mb

Mise a jour : 17/12/2017 22:29:12
Généré par Cumulus 1.9.4 (1099)